Terminal Aerodrome Forecast
Issued by NWS Albuquerque, NM

Home | Current Version | Previous Version | Text Only | Print | Product List | Glossary On
Versions: 1 2 3 4 5 6 7 8 9 10 11 12 13 14 15 16 17 18 19 20
000
FTUS45 KABQ 201738
TAFABQ
TAF
KABQ 201738Z 2018/2118 25010KT P6SM VCSH FEW035 BKN060
     FM201900 25014G22KT P6SM VCSH FEW025 BKN040
     FM210200 20010KT 4SM -RA OVC015
      TEMPO 2103/2106 1 1/2SM -RASN BR OVC010
     FM210600 15015KT P6SM VCSH SCT015 OVC030
     FM211400 18009G16KT 4SM -SN OVC015=

USA.gov is the U.S. government's official web portal to all federal, state and local government web resources and services.